Time;durP1;ratioP1;P1;durP2;ratioP2;P2;SDS_P1;SDS_P2;PMS_P1;PMS_P2;Temp;Humidity;BMP_temperature;BMP_pressure;BME280_temperature;BME280_humidity;BME280_pressure;Samples;Min_cycle;Max_cycle;Signal;HPM_P1;HPM_P2
2021/03/21 00:02:12;;;;;;;1.52;0.63;;;19.60;42.90;;;;;;6172743;28;20118;-70
2021/03/21 00:05:12;;;;;;;1.75;0.50;;;19.60;43.00;;;;;;6172901;28;20031;-69
2021/03/21 00:08:15;;;;;;;0.90;0.60;;;19.60;42.90;;;;;;6172709;28;20464;-70
2021/03/21 00:11:15;;;;;;;0.70;0.52;;;19.60;43.00;;;;;;6172439;28;20041;-70
2021/03/21 00:14:16;;;;;;;0.57;0.50;;;19.60;43.00;;;;;;6172679;28;20027;-70
2021/03/21 00:17:16;;;;;;;0.57;0.38;;;19.60;43.00;;;;;;6172248;28;20137;-69
2021/03/21 00:20:19;;;;;;;0.60;0.50;;;19.60;43.00;;;;;;6171829;28;20114;-70
2021/03/21 00:23:20;;;;;;;0.38;0.38;;;19.60;42.90;;;;;;6172572;28;20039;-69
2021/03/21 00:26:21;;;;;;;0.82;0.50;;;19.60;43.10;;;;;;6169407;28;20560;-70
2021/03/21 00:29:21;;;;;;;0.90;0.52;;;19.60;43.10;;;;;;6172436;28;20461;-69
2021/03/21 00:32:22;;;;;;;1.13;0.50;;;19.60;43.10;;;;;;6172272;28;20030;-70
2021/03/21 00:35:23;;;;;;;0.73;0.60;;;19.60;43.10;;;;;;6172249;28;20444;-69
2021/03/21 00:38:31;;;;;;;0.45;0.43;;;19.60;43.10;;;;;;6172155;28;20037;-69
2021/03/21 00:41:31;;;;;;;1.17;0.60;;;19.60;43.10;;;;;;6171606;28;20272;-69
2021/03/21 00:44:32;;;;;;;0.55;0.50;;;19.60;43.00;;;;;;6170253;28;20454;-70
2021/03/21 00:47:34;;;;;;;0.95;0.50;;;19.60;43.20;;;;;;6171584;28;20102;-69
2021/03/21 00:50:34;;;;;;;1.13;0.52;;;19.60;43.20;;;;;;6171885;28;20474;-70
2021/03/21 00:53:35;;;;;;;0.50;0.40;;;19.60;43.20;;;;;;6171662;28;20026;-70
2021/03/21 00:56:38;;;;;;;0.77;0.60;;;19.60;43.20;;;;;;6171783;28;20030;-69
2021/03/21 00:59:40;;;;;;;0.65;0.40;;;19.60;43.20;;;;;;6171520;28;20062;-69
2021/03/21 01:02:41;;;;;;;1.23;0.50;;;19.60;43.10;;;;;;6172935;28;20204;-69
2021/03/21 01:05:45;;;;;;;0.73;0.47;;;19.60;43.20;;;;;;6171638;28;20039;-70
2021/03/21 01:08:46;;;;;;;1.47;0.40;;;19.60;43.20;;;;;;6171730;28;20437;-70
2021/03/21 01:11:46;;;;;;;0.40;0.40;;;19.60;43.20;;;;;;6171333;28;20306;-70
2021/03/21 01:14:47;;;;;;;0.55;0.40;;;19.60;43.20;;;;;;6171351;28;20513;-70
2021/03/21 01:17:48;;;;;;;0.85;0.40;;;19.60;43.20;;;;;;6170795;28;20421;-69
2021/03/21 01:20:49;;;;;;;0.70;0.52;;;19.60;43.30;;;;;;6171098;28;20035;-70
2021/03/21 01:23:50;;;;;;;0.77;0.40;;;19.60;43.30;;;;;;6182119;28;20065;-70
2021/03/21 01:26:52;;;;;;;1.05;0.50;;;19.60;43.20;;;;;;6171079;28;20031;-70
2021/03/21 01:29:52;;;;;;;1.00;0.65;;;19.60;43.30;;;;;;6172312;28;20114;-70
2021/03/21 01:32:54;;;;;;;0.57;0.50;;;19.60;43.30;;;;;;6195105;28;20432;-70
2021/03/21 01:35:55;;;;;;;0.88;0.50;;;19.60;43.20;;;;;;6171470;28;20023;-71
2021/03/21 01:38:58;;;;;;;1.02;0.50;;;19.60;43.30;;;;;;6170498;28;20031;-70
2021/03/21 01:42:10;;;;;;;1.42;0.60;;;19.60;43.40;;;;;;6170625;28;20509;-70
2021/03/21 01:45:35;;;;;;;0.73;0.60;;;19.60;43.30;;;;;;6170870;28;20030;-70
2021/03/21 01:48:44;;;;;;;0.50;0.40;;;19.60;43.40;;;;;;6170806;28;20435;-70
2021/03/21 01:51:46;;;;;;;0.65;0.40;;;19.60;43.40;;;;;;6170988;28;20027;-70
2021/03/21 01:54:46;;;;;;;0.88;0.57;;;19.60;43.40;;;;;;6170745;28;20031;-70
2021/03/21 01:57:48;;;;;;;0.60;0.50;;;19.60;43.50;;;;;;6170814;28;20038;-69
2021/03/21 02:00:52;;;;;;;0.50;0.50;;;19.60;43.50;;;;;;6170640;28;20034;-70
2021/03/21 02:03:53;;;;;;;0.80;0.52;;;19.50;43.30;;;;;;6170748;28;20431;-70
2021/03/21 02:06:59;;;;;;;0.55;0.40;;;19.60;43.60;;;;;;6170804;28;20031;-70
2021/03/21 02:10:27;;;;;;;1.48;0.60;;;19.50;43.40;;;;;;6170609;28;20023;-70
2021/03/21 02:13:36;;;;;;;0.40;0.40;;;19.50;43.40;;;;;;6192352;28;20472;-70
2021/03/21 02:16:49;;;;;;;0.47;0.30;;;19.60;43.60;;;;;;6171097;28;20047;-70
2021/03/21 02:20:25;;;;;;;0.95;0.50;;;19.50;43.50;;;;;;6170398;28;20031;-70
2021/03/21 02:23:35;;;;;;;0.45;0.40;;;19.50;43.50;;;;;;6170761;28;20042;-70
2021/03/21 02:26:57;;;;;;;0.70;0.50;;;19.50;43.50;;;;;;6170373;28;20035;-70
2021/03/21 02:30:09;;;;;;;1.05;0.50;;;19.50;43.40;;;;;;6174291;28;20023;-70
2021/03/21 02:33:15;;;;;;;0.50;0.50;;;19.60;43.60;;;;;;6170506;28;20548;-70
2021/03/21 02:36:21;;;;;;;0.43;0.40;;;19.50;43.50;;;;;;6169790;28;20397;-69
2021/03/21 02:39:39;;;;;;;0.63;0.50;;;19.50;43.50;;;;;;6170221;28;20100;-69
2021/03/21 02:42:47;;;;;;;2.35;0.52;;;19.50;43.50;;;;;;6170246;28;20035;-70
2021/03/21 02:45:52;;;;;;;1.75;0.68;;;19.50;43.50;;;;;;6173776;28;20405;-70
2021/03/21 02:49:15;;;;;;;0.90;0.55;;;19.50;43.60;;;;;;6174801;28;20042;-69
2021/03/21 02:52:51;;;;;;;0.60;0.40;;;19.50;43.50;;;;;;6173967;28;20110;-70
2021/03/21 02:55:55;;;;;;;0.65;0.50;;;19.50;43.50;;;;;;6170947;28;20042;-70
2021/03/21 02:59:11;;;;;;;0.30;0.30;;;19.50;43.50;;;;;;6174310;28;20034;-70
2021/03/21 03:02:21;;;;;;;0.75;0.60;;;19.50;43.60;;;;;;6174212;28;20031;-69
2021/03/21 03:05:26;;;;;;;0.60;0.50;;;19.50;43.60;;;;;;6176921;28;20034;-69
2021/03/21 03:08:36;;;;;;;0.80;0.63;;;19.50;43.60;;;;;;6196950;28;20026;-70
2021/03/21 03:12:09;;;;;;;0.52;0.38;;;19.50;43.60;;;;;;6184364;28;20371;-70
2021/03/21 03:15:13;;;;;;;0.47;0.40;;;19.50;43.60;;;;;;6193949;28;20113;-70
2021/03/21 03:18:26;;;;;;;1.83;0.47;;;19.50;43.60;;;;;;6173810;28;20414;-70
2021/03/21 03:21:59;;;;;;;0.70;0.40;;;19.50;44.30;;;;;;6174079;28;20478;-69
2021/03/21 03:25:14;;;;;;;0.60;0.40;;;19.50;43.60;;;;;;6173726;28;20057;-70
2021/03/21 03:28:46;;;;;;;0.63;0.50;;;19.50;43.60;;;;;;6173440;28;20089;-70
2021/03/21 03:31:57;;;;;;;0.40;0.40;;;19.50;43.60;;;;;;6173965;28;20410;-69
2021/03/21 03:34:58;;;;;;;0.80;0.52;;;19.50;43.70;;;;;;6173365;28;20031;-69
2021/03/21 03:37:59;;;;;;;1.65;0.70;;;19.50;43.70;;;;;;6171701;28;20389;-70
2021/03/21 03:41:06;;;;;;;0.68;0.57;;;19.50;43.60;;;;;;6173148;28;20055;-70
2021/03/21 03:44:28;;;;;;;0.65;0.40;;;19.50;43.70;;;;;;6197515;28;20034;-70
2021/03/21 03:47:43;;;;;;;0.55;0.40;;;19.50;43.70;;;;;;6181565;28;20035;-70
2021/03/21 03:50:57;;;;;;;0.52;0.40;;;19.50;43.70;;;;;;6173202;28;20030;-70
2021/03/21 03:54:07;;;;;;;0.60;0.40;;;19.50;43.70;;;;;;6173172;28;20449;-70
2021/03/21 03:57:20;;;;;;;0.40;0.40;;;19.50;43.70;;;;;;6183501;28;20027;-70
2021/03/21 04:00:29;;;;;;;0.65;0.47;;;19.50;43.80;;;;;;6172975;28;20037;-69
2021/03/21 04:03:44;;;;;;;0.60;0.40;;;19.50;43.80;;;;;;6172636;28;20081;-70
2021/03/21 04:06:58;;;;;;;0.30;0.30;;;19.50;43.80;;;;;;6173062;28;20388;-69
2021/03/21 04:10:21;;;;;;;0.63;0.40;;;19.50;43.90;;;;;;6172721;28;20394;-69
2021/03/21 04:13:42;;;;;;;0.40;0.30;;;19.50;43.80;;;;;;6172548;28;20034;-70
2021/03/21 04:16:50;;;;;;;0.60;0.40;;;19.50;43.80;;;;;;6172520;28;20344;-70
2021/03/21 04:20:11;;;;;;;0.70;0.50;;;19.50;43.80;;;;;;6172775;28;20089;-70
2021/03/21 04:23:46;;;;;;;0.30;0.20;;;19.50;43.90;;;;;;6171917;28;20034;-70
2021/03/21 04:26:59;;;;;;;0.70;0.50;;;19.50;43.80;;;;;;6160236;28;20049;-70
2021/03/21 04:30:09;;;;;;;0.57;0.40;;;19.50;43.90;;;;;;6172433;28;20039;-70
2021/03/21 04:33:15;;;;;;;0.75;0.47;;;19.50;43.90;;;;;;6170100;28;20030;-70
2021/03/21 04:36:21;;;;;;;0.95;0.43;;;19.50;43.90;;;;;;6172247;28;20031;-69
2021/03/21 04:39:28;;;;;;;0.25;0.20;;;19.50;43.90;;;;;;6172182;28;20023;-70
2021/03/21 04:42:54;;;;;;;0.88;0.40;;;19.50;43.90;;;;;;6171535;28;20038;-70
2021/03/21 04:45:58;;;;;;;;;;;19.50;44.00;;;;;;6172303;28;20031;-70
2021/03/21 04:48:59;;;;;;;0.57;0.40;;;19.50;44.00;;;;;;6171652;28;20365;-70
2021/03/21 04:52:15;;;;;;;0.68;0.38;;;19.50;43.90;;;;;;6171596;28;20037;-70
2021/03/21 04:55:22;;;;;;;0.55;0.43;;;19.50;44.00;;;;;;6171894;28;20031;-70
2021/03/21 04:58:32;;;;;;;1.73;0.40;;;19.50;44.00;;;;;;6172465;28;20466;-70
2021/03/21 05:01:38;;;;;;;0.93;0.40;;;19.50;44.00;;;;;;6171903;28;20327;-70
2021/03/21 05:04:53;;;;;;;0.88;0.43;;;19.50;44.00;;;;;;6170053;28;20039;-70
2021/03/21 05:08:10;;;;;;;0.50;0.25;;;19.50;44.00;;;;;;6171012;28;20034;-69
2021/03/21 05:11:11;;;;;;;0.55;0.40;;;19.50;44.00;;;;;;6171443;28;20019;-70
2021/03/21 05:14:24;;;;;;;0.55;0.22;;;19.50;43.80;;;;;;6171293;28;20026;-70
2021/03/21 05:17:53;;;;;;;0.20;0.20;;;19.50;43.70;;;;;;6189420;28;20077;-69
2021/03/21 05:21:16;;;;;;;0.30;0.22;;;19.50;43.60;;;;;;6173525;28;20031;-69
2021/03/21 05:24:26;;;;;;;0.30;0.30;;;19.50;43.60;;;;;;6171103;28;20398;-69
2021/03/21 05:27:36;;;;;;;0.30;0.30;;;19.50;43.60;;;;;;6171326;28;20027;-70
2021/03/21 05:30:39;;;;;;;0.25;0.25;;;19.50;43.60;;;;;;6170418;28;20026;-69
2021/03/21 05:33:40;;;;;;;0.28;0.28;;;19.50;43.60;;;;;;6185547;28;20039;-70
2021/03/21 05:37:04;;;;;;;0.30;0.30;;;19.60;43.70;;;;;;6171078;28;20278;-70
2021/03/21 05:40:29;;;;;;;0.20;0.20;;;19.60;43.80;;;;;;6170918;28;20046;-70
2021/03/21 05:43:51;;;;;;;0.30;0.30;;;19.60;43.70;;;;;;6171003;28;20047;-70
2021/03/21 05:47:18;;;;;;;0.57;0.40;;;19.60;43.70;;;;;;6171134;28;20110;-70
2021/03/21 05:50:56;;;;;;;0.30;0.30;;;19.60;43.80;;;;;;6187955;28;20105;-70
2021/03/21 05:54:31;;;;;;;0.22;0.20;;;19.60;43.70;;;;;;6187958;28;20034;-69
2021/03/21 05:58:26;;;;;;;0.15;0.15;;;19.60;43.70;;;;;;6170980;28;20027;-70
2021/03/21 06:02:12;;;;;;;0.20;0.20;;;19.60;43.70;;;;;;6143780;28;20206;-70
2021/03/21 06:05:39;;;;;;;0.30;0.30;;;19.60;43.70;;;;;;6148940;28;20101;-69
2021/03/21 06:09:07;;;;;;;0.30;0.30;;;19.60;43.80;;;;;;6170837;28;20398;-70
2021/03/21 06:12:32;;;;;;;0.20;0.20;;;19.60;43.80;;;;;;6170985;28;20094;-69
2021/03/21 06:15:42;;;;;;;0.50;0.30;;;19.60;43.80;;;;;;6170540;28;20025;-69
2021/03/21 06:19:03;;;;;;;0.20;0.20;;;19.60;43.70;;;;;;6171875;28;20520;-69
2021/03/21 06:22:24;;;;;;;0.38;0.30;;;19.60;43.80;;;;;;6175109;28;20126;-69
2021/03/21 06:25:42;;;;;;;0.20;0.20;;;19.60;43.90;;;;;;6175288;28;20379;-69
2021/03/21 06:29:13;;;;;;;0.32;0.28;;;19.60;43.80;;;;;;6174922;28;20564;-70
2021/03/21 06:32:32;;;;;;;0.20;0.20;;;19.60;43.90;;;;;;6174838;28;20391;-69
2021/03/21 06:35:47;;;;;;;0.38;0.20;;;19.60;43.80;;;;;;6174947;28;20062;-69
2021/03/21 06:39:23;;;;;;;0.40;0.20;;;19.60;43.80;;;;;;6174914;28;20019;-70
2021/03/21 06:42:30;;;;;;;0.20;0.20;;;19.60;43.90;;;;;;6174743;28;20039;-69
2021/03/21 06:45:57;;;;;;;0.38;0.20;;;19.60;43.80;;;;;;6174492;28;20029;-69
2021/03/21 06:49:00;;;;;;;0.20;0.20;;;19.60;43.80;;;;;;6174716;28;20035;-70
2021/03/21 06:52:22;;;;;;;0.28;0.28;;;19.60;43.80;;;;;;6174873;28;20053;-69
2021/03/21 06:55:42;;;;;;;0.52;0.30;;;19.60;43.80;;;;;;6174174;28;20094;-69
2021/03/21 06:59:23;;;;;;;0.10;0.10;;;19.60;43.80;;;;;;6174434;28;20389;-69
2021/03/21 07:02:38;;;;;;;0.20;0.20;;;19.60;43.80;;;;;;6147499;28;20175;-70
2021/03/21 07:06:00;;;;;;;0.32;0.20;;;19.60;43.90;;;;;;6173878;28;20486;-69
2021/03/21 07:09:39;;;;;;;0.13;0.10;;;19.60;43.90;;;;;;6173710;28;20038;-69
2021/03/21 07:13:09;;;;;;;0.17;0.17;;;19.60;43.90;;;;;;6169807;28;20031;-69
2021/03/21 07:16:24;;;;;;;0.38;0.20;;;19.60;43.90;;;;;;6173716;28;20401;-68
2021/03/21 07:19:49;;;;;;;0.10;0.10;;;19.60;43.90;;;;;;6174005;28;20432;-69
2021/03/21 07:23:21;;;;;;;0.43;0.30;;;19.60;44.00;;;;;;6173087;28;20034;-69
2021/03/21 07:26:36;;;;;;;0.10;0.10;;;19.60;43.90;;;;;;6175021;28;20031;-69
2021/03/21 07:30:02;;;;;;;0.20;0.20;;;19.60;43.90;;;;;;6173409;28;20034;-69
2021/03/21 07:33:20;;;;;;;0.40;0.20;;;19.60;43.90;;;;;;6173363;28;20039;-69
2021/03/21 07:36:24;;;;;;;0.40;0.10;;;19.60;43.90;;;;;;6173305;28;20114;-69
2021/03/21 07:39:47;;;;;;;0.10;0.10;;;19.60;43.90;;;;;;6173424;28;20031;-69
2021/03/21 07:43:04;;;;;;;0.45;0.28;;;19.60;43.90;;;;;;6173133;28;20478;-69
2021/03/21 07:46:16;;;;;;;0.10;0.10;;;19.70;44.00;;;;;;6174496;28;20042;-69
2021/03/21 07:49:45;;;;;;;0.22;0.20;;;19.60;43.90;;;;;;6174089;28;20027;-69
2021/03/21 07:53:05;;;;;;;0.32;0.20;;;19.60;43.90;;;;;;6173141;28;20090;-68
2021/03/21 07:56:18;;;;;;;0.20;0.10;;;19.70;44.00;;;;;;6173980;28;20019;-69
2021/03/21 07:59:26;;;;;;;0.20;0.20;;;19.70;44.00;;;;;;6196650;28;20053;-70
2021/03/21 08:02:27;;;;;;;0.10;0.10;;;19.70;44.00;;;;;;6181762;28;20109;-69
2021/03/21 08:05:28;;;;;;;0.52;0.20;;;19.70;44.00;;;;;;6173997;28;20135;-69
2021/03/21 08:08:35;;;;;;;0.20;0.17;;;19.70;44.00;;;;;;6172736;28;20023;-69
2021/03/21 08:11:37;;;;;;;0.35;0.17;;;19.70;44.00;;;;;;6172575;28;20441;-69
2021/03/21 08:14:45;;;;;;;0.20;0.20;;;19.70;44.00;;;;;;6172801;28;20062;-70
2021/03/21 08:18:00;;;;;;;0.20;0.20;;;19.70;44.80;;;;;;6172024;28;20049;-69
2021/03/21 08:21:27;;;;;;;0.40;0.20;;;19.70;44.00;;;;;;6172519;28;20448;-69
2021/03/21 08:24:36;;;;;;;0.55;0.17;;;19.70;44.10;;;;;;6185896;28;20026;-69
2021/03/21 08:27:36;;;;;;;0.20;0.20;;;19.70;44.00;;;;;;6185628;28;20062;-69
2021/03/21 08:30:50;;;;;;;0.20;0.20;;;19.70;44.00;;;;;;6180930;28;20053;-69
2021/03/21 08:33:50;;;;;;;0.30;0.10;;;19.70;44.10;;;;;;6176259;28;20110;-69
2021/03/21 08:36:51;;;;;;;0.30;0.20;;;19.70;44.00;;;;;;6172317;28;20027;-69
2021/03/21 08:39:56;;;;;;;0.20;0.20;;;19.70;44.00;;;;;;6171238;28;20559;-69
2021/03/21 08:43:21;;;;;;;0.10;0.10;;;19.70;44.00;;;;;;6169147;28;20498;-68
2021/03/21 08:46:23;;;;;;;0.10;0.10;;;19.70;44.00;;;;;;6172722;28;20105;-70
2021/03/21 08:49:27;;;;;;;0.15;0.15;;;19.70;44.00;;;;;;6170144;28;20760;-69
2021/03/21 08:52:45;;;;;;;0.10;0.10;;;19.70;44.00;;;;;;6171419;28;20081;-69
2021/03/21 08:55:46;;;;;;;0.20;0.10;;;19.70;44.00;;;;;;6171628;28;20042;-70
2021/03/21 08:59:08;;;;;;;0.20;0.10;;;19.70;44.00;;;;;;6173096;28;20023;-69
2021/03/21 09:02:08;;;;;;;0.28;0.20;;;19.70;44.00;;;;;;6193468;28;20050;-69
2021/03/21 09:05:12;;;;;;;0.10;0.10;;;19.70;44.00;;;;;;6171835;28;20106;-69
2021/03/21 09:08:21;;;;;;;0.10;0.10;;;19.70;44.00;;;;;;6171471;28;20027;-70
2021/03/21 09:11:35;;;;;;;0.28;0.20;;;19.70;44.00;;;;;;6171277;28;20038;-69
2021/03/21 09:14:36;;;;;;;0.35;0.30;;;19.70;44.00;;;;;;6171118;28;20026;-69
2021/03/21 09:17:36;;;;;;;0.20;0.20;;;19.70;44.00;;;;;;6171065;28;20457;-70
2021/03/21 09:20:39;;;;;;;0.38;0.17;;;19.70;44.00;;;;;;6171119;28;20018;-69
2021/03/21 09:23:50;;;;;;;0.30;0.20;;;19.70;44.00;;;;;;6171145;28;20109;-69
2021/03/21 09:26:51;;;;;;;0.20;0.20;;;19.70;44.00;;;;;;6171408;28;20031;-70
2021/03/21 09:29:51;;;;;;;0.10;0.10;;;19.70;43.90;;;;;;6170795;28;20027;-69
2021/03/21 09:33:00;;;;;;;0.38;0.20;;;19.70;44.00;;;;;;6171126;28;20030;-69
2021/03/21 09:36:11;;;;;;;0.25;0.20;;;19.70;44.00;;;;;;6171178;28;20023;-69
2021/03/21 09:39:24;;;;;;;0.25;0.25;;;19.70;44.00;;;;;;6170872;28;20034;-69
2021/03/21 09:42:25;;;;;;;0.60;0.30;;;19.70;44.00;;;;;;6171035;28;20066;-70
2021/03/21 09:45:26;;;;;;;0.20;0.10;;;19.70;44.00;;;;;;6170851;28;20019;-70
2021/03/21 09:49:01;;;;;;;0.13;0.13;;;19.70;44.00;;;;;;6170714;28;20034;-69
2021/03/21 09:52:18;;;;;;;0.93;0.30;;;19.70;43.90;;;;;;6171041;28;20514;-69
2021/03/21 09:55:37;;;;;;;0.30;0.17;;;19.70;44.00;;;;;;6175757;28;20489;-69
2021/03/21 09:58:54;;;;;;;0.43;0.28;;;19.70;44.00;;;;;;6175642;28;20498;-69
2021/03/21 10:02:04;;;;;;;0.98;0.30;;;19.70;43.90;;;;;;6177105;28;20482;-69
2021/03/21 10:05:25;;;;;;;0.82;0.30;;;19.70;43.90;;;;;;6175172;28;20397;-69
2021/03/21 10:08:52;;;;;;;0.75;0.30;;;19.70;43.90;;;;;;6175503;28;20481;-69
2021/03/21 10:12:04;;;;;;;0.40;0.30;;;19.70;43.90;;;;;;6180176;28;20049;-70
2021/03/21 10:15:13;;;;;;;0.93;0.47;;;19.70;43.90;;;;;;6183959;28;20042;-69
2021/03/21 10:18:41;;;;;;;2.65;0.50;;;19.70;43.90;;;;;;6175121;28;20055;-68
2021/03/21 10:21:42;;;;;;;2.13;0.28;;;19.70;44.30;;;;;;6174976;28;20058;-69
2021/03/21 10:25:19;;;;;;;16.38;0.57;;;19.70;44.60;;;;;;6174983;28;20023;-68
2021/03/21 10:28:34;;;;;;;7.75;1.50;;;19.60;44.10;;;;;;6174904;28;20478;-69
2021/03/21 10:31:38;;;;;;;3.45;0.90;;;19.60;42.60;;;;;;6189945;28;20042;-69
2021/03/21 10:34:40;;;;;;;4.65;0.98;;;19.60;42.90;;;;;;6174914;28;20019;-69
2021/03/21 10:37:40;;;;;;;2.78;0.80;;;19.60;43.10;;;;;;6174872;28;20050;-68
2021/03/21 10:40:45;;;;;;;4.03;1.13;;;19.60;43.20;;;;;;6174434;28;20027;-69
2021/03/21 10:43:56;;;;;;;7.18;1.08;;;19.60;43.50;;;;;;6195105;28;20057;-69
2021/03/21 10:46:59;;;;;;;12.85;1.48;;;19.60;43.60;;;;;;6174870;28;20540;-69
2021/03/21 10:50:05;;;;;;;5.80;1.35;;;19.60;43.60;;;;;;6174524;28;20126;-69
2021/03/21 10:53:25;;;;;;;5.65;1.20;;;19.60;43.70;;;;;;6174505;28;20505;-69
2021/03/21 10:56:26;;;;;;;4.10;1.00;;;19.60;43.60;;;;;;6174816;28;20118;-69
2021/03/21 10:59:28;;;;;;;3.00;1.05;;;19.60;43.70;;;;;;6173907;28;20027;-69
2021/03/21 11:02:28;;;;;;;3.17;1.30;;;19.60;43.70;;;;;;6174398;28;20065;-68
2021/03/21 11:05:35;;;;;;;2.67;0.80;;;19.60;43.90;;;;;;6173599;28;20023;-69
2021/03/21 11:08:35;;;;;;;3.13;0.80;;;19.60;43.80;;;;;;6174333;28;20050;-69
2021/03/21 11:11:39;;;;;;;3.58;1.08;;;19.60;43.80;;;;;;6174090;28;20107;-69
2021/03/21 11:14:39;;;;;;;3.47;0.77;;;19.60;43.70;;;;;;6174428;28;20054;-69
2021/03/21 11:17:40;;;;;;;4.45;0.90;;;19.60;43.80;;;;;;6173324;28;20056;-69
2021/03/21 11:20:40;;;;;;;5.28;0.85;;;19.60;44.00;;;;;;6173740;28;20030;-69
2021/03/21 11:23:46;;;;;;;3.78;1.20;;;19.60;44.00;;;;;;6173829;28;20077;-69
2021/03/21 11:26:47;;;;;;;2.85;0.95;;;19.60;44.00;;;;;;6173817;28;20031;-69
2021/03/21 11:29:48;;;;;;;2.78;0.90;;;19.60;44.00;;;;;;6173679;28;20041;-69
2021/03/21 11:32:48;;;;;;;3.15;0.93;;;19.60;44.10;;;;;;6173724;28;20027;-69
2021/03/21 11:35:49;;;;;;;2.33;0.93;;;19.60;44.00;;;;;;6173579;28;20023;-69
2021/03/21 11:38:51;;;;;;;4.22;1.20;;;19.60;44.00;;;;;;6174045;28;20027;-68
2021/03/21 11:41:51;;;;;;;3.70;1.00;;;19.60;44.00;;;;;;6173417;28;20026;-69
2021/03/21 11:45:13;;;;;;;1.95;0.70;;;19.60;44.10;;;;;;6173303;28;20053;-69
2021/03/21 11:48:27;;;;;;;4.20;1.27;;;19.60;44.00;;;;;;6173387;28;20031;-68
2021/03/21 11:51:28;;;;;;;2.88;0.88;;;19.60;43.90;;;;;;6173436;28;20157;-68
2021/03/21 11:54:32;;;;;;;5.68;1.25;;;19.60;44.10;;;;;;6172940;28;20023;-67
2021/03/21 11:58:02;;;;;;;7.00;1.33;;;19.60;44.10;;;;;;6172985;28;20042;-69
2021/03/21 12:01:30;;;;;;;3.65;0.88;;;19.60;44.10;;;;;;6172915;28;20041;-69
2021/03/21 12:04:41;;;;;;;2.45;1.02;;;19.60;44.10;;;;;;6173006;28;20023;-68
2021/03/21 12:07:41;;;;;;;2.40;0.77;;;19.60;44.10;;;;;;6172594;28;20029;-69
2021/03/21 12:10:43;;;;;;;2.85;0.90;;;19.60;44.10;;;;;;6172490;28;20030;-68
2021/03/21 12:13:45;;;;;;;4.72;1.30;;;19.60;44.00;;;;;;6172623;28;20043;-69
2021/03/21 12:16:45;;;;;;;2.70;1.00;;;19.60;44.00;;;;;;6186915;28;20248;-69
2021/03/21 12:19:46;;;;;;;4.20;1.10;;;19.60;44.10;;;;;;6183994;28;20053;-69
2021/03/21 12:22:50;;;;;;;3.20;0.93;;;19.60;44.10;;;;;;6172171;28;20030;-69
2021/03/21 12:26:12;;;;;;;4.78;1.02;;;19.60;44.00;;;;;;6172622;28;20541;-69
2021/03/21 12:29:24;;;;;;;2.85;1.05;;;19.60;44.10;;;;;;6172392;28;20031;-69
2021/03/21 12:32:25;;;;;;;3.00;1.00;;;19.60;44.00;;;;;;6172555;28;20027;-69
2021/03/21 12:35:25;;;;;;;1.17;0.70;;;19.60;44.20;;;;;;6170017;28;20336;-69
2021/03/21 12:49:04;;;;;;;2.35;0.77;;;19.60;44.10;;;;;;7778918;22;705999;-70
2021/03/21 12:52:16;;;;;;;2.45;1.05;;;19.60;44.10;;;;;;7797903;22;20016;-70
2021/03/21 12:55:18;;;;;;;4.25;1.17;;;19.60;44.10;;;;;;7797528;22;20008;-70
2021/03/21 12:58:19;;;;;;;2.95;0.95;;;19.60;44.10;;;;;;7798433;22;20014;-70
2021/03/21 13:01:20;;;;;;;2.97;0.80;;;19.60;44.10;;;;;;7797687;22;20014;-70
2021/03/21 13:04:21;;;;;;;5.32;1.52;;;19.60;44.10;;;;;;7792254;22;20030;-70
2021/03/21 13:07:22;;;;;;;4.03;1.17;;;19.60;44.10;;;;;;7797594;22;20505;-70
2021/03/21 13:10:25;;;;;;;3.67;1.20;;;19.60;44.20;;;;;;7797548;22;20082;-70
2021/03/21 13:13:26;;;;;;;2.50;0.90;;;19.60;44.20;;;;;;7797441;22;20010;-70
2021/03/21 13:16:27;;;;;;;1.45;0.77;;;19.60;44.00;;;;;;7797203;22;20004;-69
2021/03/21 13:19:27;;;;;;;1.88;0.88;;;19.60;44.20;;;;;;7797259;22;20011;-70
2021/03/21 13:22:28;;;;;;;3.85;1.00;;;19.60;44.20;;;;;;7796864;22;20010;-70
2021/03/21 13:25:34;;;;;;;4.53;1.23;;;19.60;44.10;;;;;;7797424;22;20003;-70
2021/03/21 13:28:34;;;;;;;3.05;0.82;;;19.60;44.10;;;;;;7797265;22;20342;-70
2021/03/21 13:31:35;;;;;;;2.58;1.05;;;19.60;43.90;;;;;;7797379;22;20012;-69
2021/03/21 13:34:36;;;;;;;2.60;0.95;;;19.60;44.00;;;;;;7797148;22;20338;-70
2021/03/21 13:37:37;;;;;;;2.72;0.98;;;19.60;44.10;;;;;;7796891;22;20011;-70
2021/03/21 13:40:40;;;;;;;2.00;0.90;;;19.60;44.00;;;;;;7796968;22;20010;-69
2021/03/21 13:43:41;;;;;;;2.72;0.98;;;19.60;44.00;;;;;;7797016;22;20007;-70
2021/03/21 13:46:42;;;;;;;2.83;1.30;;;19.60;44.00;;;;;;7797078;22;20323;-70
2021/03/21 13:49:43;;;;;;;2.15;0.77;;;19.60;44.00;;;;;;7789082;22;20010;-69
2021/03/21 13:52:43;;;;;;;2.33;0.90;;;19.60;44.20;;;;;;7788483;22;20501;-69
2021/03/21 13:55:45;;;;;;;2.40;0.85;;;19.60;44.00;;;;;;7788580;22;20007;-70
2021/03/21 13:58:45;;;;;;;2.38;0.80;;;19.60;44.10;;;;;;7788200;22;20011;-69
2021/03/21 14:01:46;;;;;;;1.75;0.82;;;19.60;44.00;;;;;;7788317;22;20003;-70
2021/03/21 14:04:46;;;;;;;2.75;1.00;;;19.60;44.00;;;;;;7788515;22;20011;-69
2021/03/21 14:07:48;;;;;;;2.95;0.90;;;19.60;44.60;;;;;;7788376;22;20004;-69
2021/03/21 14:10:49;;;;;;;1.88;0.85;;;19.60;43.80;;;;;;7788040;22;20440;-69
2021/03/21 14:13:50;;;;;;;2.22;0.82;;;19.60;43.90;;;;;;7788311;22;20010;-70
2021/03/21 14:16:50;;;;;;;2.63;1.00;;;19.60;43.90;;;;;;7787705;22;20007;-69
2021/03/21 14:19:51;;;;;;;1.80;0.73;;;19.60;43.90;;;;;;7788288;22;20079;-70
2021/03/21 14:22:51;;;;;;;3.45;0.88;;;19.60;44.00;;;;;;7788048;22;20030;-70
2021/03/21 14:25:52;;;;;;;3.00;1.00;;;19.60;43.90;;;;;;7788610;22;20109;-70
2021/03/21 14:28:53;;;;;;;2.10;0.75;;;19.60;43.80;;;;;;7787916;22;20304;-70
2021/03/21 14:31:53;;;;;;;2.38;0.80;;;19.60;43.70;;;;;;7788164;22;19999;-69
2021/03/21 14:34:54;;;;;;;2.33;0.77;;;19.60;43.80;;;;;;7787670;22;20011;-69
2021/03/21 14:37:54;;;;;;;2.15;0.70;;;19.60;43.60;;;;;;7787580;22;20007;-70
2021/03/21 14:40:56;;;;;;;2.35;0.70;;;19.60;43.80;;;;;;7787948;22;20027;-69
2021/03/21 14:43:56;;;;;;;2.03;0.70;;;19.60;43.60;;;;;;7787697;22;20003;-70
2021/03/21 14:46:57;;;;;;;1.17;0.50;;;19.60;43.60;;;;;;7787566;22;20022;-70
2021/03/21 14:49:58;;;;;;;2.00;0.68;;;19.60;43.70;;;;;;7787830;22;20004;-70
2021/03/21 14:52:58;;;;;;;1.55;0.70;;;19.60;43.70;;;;;;7787947;22;20003;-69
2021/03/21 14:55:59;;;;;;;0.68;0.45;;;19.60;43.80;;;;;;7787660;22;20015;-69
2021/03/21 14:58:59;;;;;;;1.92;0.82;;;19.60;43.80;;;;;;7787976;22;20026;-69
2021/03/21 15:02:00;;;;;;;1.02;0.50;;;19.60;43.80;;;;;;7787845;22;20039;-70
2021/03/21 15:05:00;;;;;;;1.33;0.55;;;19.60;43.80;;;;;;7787347;22;20000;-69
2021/03/21 15:08:02;;;;;;;1.20;0.43;;;19.60;43.60;;;;;;7788069;22;20008;-69
2021/03/21 15:11:04;;;;;;;1.42;0.60;;;19.60;43.70;;;;;;7787297;22;20000;-69
2021/03/21 15:14:04;;;;;;;1.45;0.60;;;19.60;43.80;;;;;;7787730;22;20065;-70
2021/03/21 15:17:05;;;;;;;1.30;0.47;;;19.60;43.60;;;;;;7787659;22;20439;-69
2021/03/21 15:20:07;;;;;;;1.73;0.63;;;19.60;43.70;;;;;;7787670;22;20000;-69
2021/03/21 15:23:10;;;;;;;0.63;0.30;;;19.60;43.60;;;;;;7787617;22;20008;-70
2021/03/21 15:26:14;;;;;;;0.98;0.60;;;19.60;44.30;;;;;;7787496;22;20335;-70
2021/03/21 15:29:14;;;;;;;0.65;0.35;;;19.60;43.50;;;;;;7787542;22;20008;-70
2021/03/21 15:32:15;;;;;;;1.02;0.60;;;19.60;43.40;;;;;;7760186;22;20015;-70
2021/03/21 15:35:17;;;;;;;0.82;0.40;;;19.60;43.20;;;;;;7787327;22;20447;-70
2021/03/21 15:38:18;;;;;;;1.38;0.50;;;19.60;43.70;;;;;;7787157;22;20035;-69
2021/03/21 15:41:20;;;;;;;1.30;0.40;;;19.60;43.40;;;;;;7787288;22;19999;-69
2021/03/21 15:44:21;;;;;;;1.25;0.55;;;19.60;43.80;;;;;;7759885;22;20023;-70
2021/03/21 15:47:21;;;;;;;1.00;0.47;;;19.60;43.50;;;;;;7786410;22;20015;-70
2021/03/21 15:50:23;;;;;;;0.57;0.40;;;19.60;43.70;;;;;;7787179;22;20022;-70
2021/03/21 15:53:24;;;;;;;0.90;0.47;;;19.60;43.60;;;;;;7787017;22;20070;-70
2021/03/21 15:56:25;;;;;;;0.95;0.40;;;19.60;43.60;;;;;;7786985;22;20000;-70
2021/03/21 15:59:25;;;;;;;1.60;0.60;;;19.60;43.30;;;;;;7787674;22;20311;-70
2021/03/21 16:02:29;;;;;;;1.05;0.40;;;19.60;43.60;;;;;;7787243;22;20004;-70
2021/03/21 16:05:29;;;;;;;1.05;0.50;;;19.60;43.30;;;;;;7786427;22;20087;-70
2021/03/21 16:08:30;;;;;;;0.68;0.45;;;19.60;43.50;;;;;;7786590;22;20003;-69
2021/03/21 16:11:31;;;;;;;0.55;0.38;;;19.60;43.40;;;;;;7786280;22;20004;-70
2021/03/21 16:14:32;;;;;;;0.93;0.45;;;19.60;43.60;;;;;;7786992;22;20080;-71
2021/03/21 16:17:32;;;;;;;0.77;0.38;;;19.60;43.30;;;;;;7786682;22;20016;-70
2021/03/21 16:20:34;;;;;;;0.63;0.38;;;19.60;43.20;;;;;;7787451;22;20007;-70
2021/03/21 16:23:34;;;;;;;0.43;0.30;;;19.60;43.30;;;;;;7786639;22;20086;-70
2021/03/21 16:26:35;;;;;;;0.47;0.40;;;19.60;43.30;;;;;;7787068;22;20064;-69
2021/03/21 16:29:35;;;;;;;1.15;0.80;;;19.60;43.30;;;;;;7786667;22;20000;-70
2021/03/21 16:32:36;;;;;;;0.82;0.40;;;19.60;43.30;;;;;;7786762;22;20368;-69
2021/03/21 16:35:38;;;;;;;1.05;0.40;;;19.60;43.20;;;;;;7786792;22;20004;-70